Ana Sayfa
METAR-TAF:

METAR-TAF

Havaalanları :

Mazatlán, Meksika

Enlem: 23-10N, Boylam: 106-16W, yükseklik: 10 m

Güncel hava durumu gözlemi

Rapor saat 05:42 UTC de 1 saat ve 22 dakika önce yapıldı.
Sakin rüzgar
Sıcaklık 17°C
Nem 100%
Basınç 1013 hPa
Görüş mesafesi: 16.1 km
Açık gökyüzü

METAR: MMMZ 140542Z 00000KT 10SM SKC 17/17 A2991 RMK SLP126 54000 983 HZY

Saat: 00:04 (07:04 UTC)

Tahmin

Rapor saat 04:42 UTC de 2 saat ve 22 dakika önce yapıldı.
Ayın 14'si saat 06 UTC'den ayın 15'si saat 12 UTC'ye kadar geçerli Tahmin
Rüzgar kuzey/kuzeydoğudan 5 kt
Görüş mesafesi: 10 km
Açık gökyüzü
Ayın 14'si saat 1600 UTC'den
Rüzgar güneybatıdan 10 kt
Görüş mesafesi: 10 km
Açık gökyüzü
Ayın 15'si saat 0300 UTC'den
Rüzgar kuzey/kuzeydoğudan 5 kt
Görüş mesafesi: 10 km
Açık gökyüzü

TAF: MMMZ 140442Z 1406/1512 02005KT P6SM SKC TX30/1419Z TN14/1412Z FM141600 23010KT P6SM SKC FM150300 02005KT P6SM SKC

4.000'den fazla havaalanı için hava durumu gözlemleri ve tahminleri (METAR ve TAF raporları).

Kullanılabilir istasyonlar harita üzerinde sarı ve kırmızı noktalarla gösterilir.

İstasyonun adını görmek için fareyi noktanın üzerinde gezdirin.

Sonrasında hava gözlem ve tahminlerini görmek için tıklayın.

Haritayı değiştirmek için: yaklaştırmak için siyah artı işaretli yeşil düğmeye ve uzaklaştırmak için de eksi işaretli düğmeye hızla tıklayın; bitişik haritalar için yeşil okları kullanın.


METAR-TAF: